Terminal Aerodrome Forecast
Issued by NWS Cleveland, OH

Home | Current Version | Previous Version | Text Only | Print | Product List | Glossary Off
Versions: 1 2 3 4 5 6 7 8 9 10 11 12 13 14 15 16 17 18 19 20 21

000
FTUS41 KCLE 241400 AAB
TAFTOL
TAF AMD
KTOL 241408Z 2414/2512 04004KT 4SM BR BKN008 OVC012
     FM241530 07008KT P6SM BKN015
     FM241800 07008KT P6SM SCT035 BKN250
     FM250100 09004KT P6SM SCT100
     FM250900 13003KT 3SM BR SCT080=

USA.gov is the U.S. government's official web portal to all federal, state and local government web resources and services.